Time;durP1;ratioP1;P1;durP2;ratioP2;P2;SDS_P1;SDS_P2;PMS_P1;PMS_P2;Temp;Humidity;BMP_temperature;BMP_pressure;BME280_temperature;BME280_humidity;BME280_pressure;Samples;Min_cycle;Max_cycle;Signal;HPM_P1;HPM_P2
2023/05/24 00:01:03;;;;;;;56.03;53.05;;;;;;;18.85;41.69;102385.84;5018987;28;20034;-73
2023/05/24 00:03:33;;;;;;;57.45;54.28;;;;;;;18.83;41.60;102389.94;5010660;28;20479;-73
2023/05/24 00:06:02;;;;;;;54.33;51.72;;;;;;;18.79;41.75;102389.59;5012929;28;20093;-73
2023/05/24 00:08:28;;;;;;;54.25;51.03;;;;;;;18.77;41.78;102383.56;4996753;28;20109;-73
2023/05/24 00:10:53;;;;;;;55.65;52.63;;;;;;;18.74;41.57;102384.88;5004737;28;20605;-74
2023/05/24 00:13:19;;;;;;;57.70;54.60;;;;;;;18.72;42.00;102383.47;5005890;28;20037;-73
2023/05/24 00:15:44;;;;;;;57.10;53.25;;;;;;;18.69;41.47;102387.56;5010363;28;20037;-73
2023/05/24 00:18:10;;;;;;;54.22;51.03;;;;;;;18.66;41.96;102374.38;5026280;28;20051;-74
2023/05/24 00:20:35;;;;;;;54.38;51.80;;;;;;;18.64;41.97;102370.25;5002441;28;20368;-75
2023/05/24 00:23:00;;;;;;;54.90;52.15;;;;;;;18.61;41.97;102363.38;5006122;28;20036;-75
2023/05/24 00:25:26;;;;;;;54.20;51.38;;;;;;;18.58;41.64;102362.00;5002555;28;20038;-76
2023/05/24 00:27:51;;;;;;;57.17;54.15;;;;;;;18.56;41.72;102358.69;5010480;28;20369;-76
2023/05/24 00:30:17;;;;;;;54.97;51.88;;;;;;;18.52;41.91;102359.44;5008116;28;20037;-74
2023/05/24 00:32:42;;;;;;;58.13;54.72;;;;;;;18.50;41.92;102356.16;4981200;28;20046;-75
2023/05/24 00:35:08;;;;;;;53.88;51.15;;;;;;;18.47;42.12;102352.03;4991098;28;20135;-75
2023/05/24 00:37:33;;;;;;;54.90;51.88;;;;;;;18.44;42.02;102352.53;5006381;28;20048;-76
2023/05/24 00:39:59;;;;;;;52.97;50.25;;;;;;;18.42;42.40;102354.72;5006452;28;20045;-75
2023/05/24 00:42:24;;;;;;;53.95;51.15;;;;;;;18.40;42.25;102347.84;5006442;28;20046;-74
2023/05/24 00:44:50;;;;;;;55.20;52.28;;;;;;;18.36;42.25;102340.13;5005266;28;20112;-73
2023/05/24 00:47:15;;;;;;;52.78;49.83;;;;;;;18.35;42.16;102348.59;4985228;28;20049;-73
2023/05/24 00:49:41;;;;;;;56.80;53.33;;;;;;;18.33;42.28;102348.03;5009798;28;20030;-74
2023/05/24 00:52:07;;;;;;;54.20;51.33;;;;;;;18.30;42.30;102343.06;4995452;28;20382;-74
2023/05/24 00:54:33;;;;;;;52.70;49.92;;;;;;;18.27;42.28;102338.94;5024416;28;20085;-74
2023/05/24 00:56:59;;;;;;;53.30;50.50;;;;;;;18.24;42.23;102339.44;5003460;28;20038;-73
2023/05/24 00:59:25;;;;;;;53.53;50.67;;;;;;;18.21;42.24;102344.59;5005102;28;20037;-74
2023/05/24 01:01:51;;;;;;;54.70;51.80;;;;;;;18.19;42.21;102342.09;5001170;28;20061;-74
2023/05/24 01:04:19;;;;;;;54.33;51.15;;;;;;;18.16;42.36;102342.63;5010764;28;20046;-73
2023/05/24 01:06:56;;;;;;;53.00;50.05;;;;;;;18.14;42.34;102342.03;5024598;28;20030;-74
2023/05/24 01:09:55;;;;;;;50.97;48.47;;;;;;;18.11;42.15;102351.56;5003320;28;20034;-73
2023/05/24 01:12:41;;;;;;;52.08;48.72;;;;;;;18.07;42.32;102334.03;5009091;28;20505;-73
2023/05/24 01:15:21;;;;;;;51.22;48.25;;;;;;;18.04;42.40;102336.44;4996228;28;20091;-75
2023/05/24 01:18:06;;;;;;;51.60;48.90;;;;;;;18.00;42.19;102330.66;5010425;28;20041;-75
2023/05/24 01:20:33;;;;;;;51.67;48.67;;;;;;;17.98;42.46;102332.00;5008923;28;20031;-74
2023/05/24 01:23:18;;;;;;;51.92;49.22;;;;;;;17.95;42.31;102338.81;5005479;28;20042;-73
2023/05/24 01:26:16;;;;;;;50.30;47.70;;;;;;;17.94;42.38;102331.66;4995858;28;20042;-73
2023/05/24 01:28:43;;;;;;;51.63;48.60;;;;;;;17.87;42.18;102331.88;4999878;28;20096;-74
2023/05/24 01:31:10;;;;;;;51.95;49.00;;;;;;;17.86;42.54;102330.19;5006015;28;20034;-74
2023/05/24 01:33:40;;;;;;;50.05;47.45;;;;;;;17.83;42.32;102327.16;5023756;28;20517;-74
2023/05/24 01:36:06;;;;;;;49.70;46.80;;;;;;;17.81;42.64;102334.78;5003229;28;20049;-74
2023/05/24 01:38:31;;;;;;;51.38;48.22;;;;;;;17.78;42.38;102336.06;4981457;28;20038;-73
2023/05/24 01:41:05;;;;;;;53.45;49.97;;;;;;;17.76;42.37;102323.75;5010886;28;20042;-74
2023/05/24 01:43:38;;;;;;;51.30;48.67;;;;;;;17.74;42.31;102327.56;5008062;28;20037;-74
2023/05/24 01:46:21;;;;;;;50.65;47.85;;;;;;;17.71;42.67;102329.97;5008707;28;20037;-76
2023/05/24 01:49:12;;;;;;;51.75;49.03;;;;;;;17.68;42.27;102325.81;4994377;28;20038;-74
2023/05/24 01:51:58;;;;;;;50.17;47.38;;;;;;;17.65;42.76;102320.88;5007066;28;20034;-75
2023/05/24 01:54:27;;;;;;;48.55;46.25;;;;;;;17.62;42.81;102317.84;5005425;28;20045;-76
2023/05/24 01:56:54;;;;;;;50.45;47.72;;;;;;;17.60;42.84;102320.81;5005774;28;20034;-73
2023/05/24 01:59:22;;;;;;;49.40;46.85;;;;;;;17.58;42.74;102325.69;4997673;28;20031;-73
2023/05/24 02:01:48;;;;;;;50.33;47.03;;;;;;;17.55;42.81;102319.91;4997588;28;20030;-75
2023/05/24 02:04:13;;;;;;;49.05;46.47;;;;;;;17.53;42.68;102328.34;5006437;28;20048;-73
2023/05/24 02:06:39;;;;;;;49.13;46.72;;;;;;;17.49;43.05;102333.50;5005610;28;20054;-73
2023/05/24 02:09:04;;;;;;;49.20;46.50;;;;;;;17.47;42.86;102330.19;5007153;28;20042;-74
2023/05/24 02:11:29;;;;;;;49.05;46.35;;;;;;;17.45;42.56;102329.59;5010880;28;20038;-75
2023/05/24 02:13:55;;;;;;;50.95;47.95;;;;;;;17.43;43.03;102334.47;4999985;28;20042;-74
2023/05/24 02:16:22;;;;;;;50.30;47.40;;;;;;;17.40;42.66;102331.44;5001967;28;20121;-73
2023/05/24 02:18:49;;;;;;;49.13;46.65;;;;;;;17.38;42.72;102325.38;5008993;28;20371;-73
2023/05/24 02:21:14;;;;;;;51.75;48.17;;;;;;;17.36;42.67;102335.72;5017756;28;20981;-73
2023/05/24 02:23:40;;;;;;;47.67;45.28;;;;;;;17.33;42.79;102330.78;5009817;28;20117;-73
2023/05/24 02:26:06;;;;;;;50.78;47.88;;;;;;;17.32;43.08;102334.59;4997989;28;20548;-74
2023/05/24 02:28:31;;;;;;;48.55;45.70;;;;;;;17.29;43.04;102330.44;5011454;28;20047;-73
2023/05/24 02:30:57;;;;;;;51.88;48.88;;;;;;;17.26;43.17;102331.78;5001711;28;20092;-73
2023/05/24 02:33:25;;;;;;;48.92;46.08;;;;;;;17.24;42.85;102331.19;5023213;28;20042;-73
2023/05/24 02:35:51;;;;;;;49.67;46.47;;;;;;;17.21;43.08;102323.50;5000228;28;20034;-73
2023/05/24 02:38:16;;;;;;;51.97;49.10;;;;;;;17.19;42.84;102327.56;4995776;28;20037;-72
2023/05/24 02:40:41;;;;;;;46.80;44.20;;;;;;;17.16;43.10;102320.69;5000517;28;20073;-74
2023/05/24 02:43:08;;;;;;;47.00;44.50;;;;;;;17.14;42.77;102325.56;5005987;28;20483;-73
2023/05/24 02:45:35;;;;;;;49.88;46.30;;;;;;;17.11;43.15;102325.22;5003829;28;20050;-73
2023/05/24 02:48:00;;;;;;;47.30;44.17;;;;;;;17.10;42.88;102324.41;4999722;28;20404;-74
2023/05/24 02:50:26;;;;;;;47.63;44.63;;;;;;;17.07;43.21;102328.44;5007732;28;20038;-75
2023/05/24 02:52:51;;;;;;;47.35;44.85;;;;;;;17.05;42.97;102327.03;5011271;28;20440;-74
2023/05/24 02:55:17;;;;;;;48.45;45.80;;;;;;;17.02;43.23;102325.63;5006349;28;20038;-73
2023/05/24 02:57:42;;;;;;;47.35;44.63;;;;;;;17.00;42.97;102325.06;5005328;28;20152;-74
2023/05/24 03:00:10;;;;;;;46.30;44.10;;;;;;;16.98;42.96;102331.84;5004131;28;20363;-74
2023/05/24 03:02:37;;;;;;;46.13;43.83;;;;;;;16.96;43.28;102344.91;5003607;28;20050;-74
2023/05/24 03:05:03;;;;;;;48.15;45.25;;;;;;;16.93;43.26;102340.75;5011204;28;20076;-74
2023/05/24 03:07:28;;;;;;;47.03;44.70;;;;;;;16.91;43.21;102336.63;5005046;28;20459;-76
2023/05/24 03:09:54;;;;;;;47.38;44.78;;;;;;;16.87;43.36;102337.13;5007515;28;20088;-73
2023/05/24 03:12:19;;;;;;;47.13;43.95;;;;;;;16.84;43.22;102323.97;5007655;28;20044;-74
2023/05/24 03:14:44;;;;;;;50.17;47.00;;;;;;;16.83;43.07;102324.19;5026058;28;20116;-73
2023/05/24 03:17:10;;;;;;;46.50;43.70;;;;;;;16.80;43.30;102333.72;5015013;28;20033;-73
2023/05/24 03:19:36;;;;;;;46.28;43.85;;;;;;;16.78;43.06;102340.50;5010490;28;20069;-74
2023/05/24 03:22:02;;;;;;;46.83;44.05;;;;;;;16.76;43.08;102328.97;5005647;28;20042;-73
2023/05/24 03:24:27;;;;;;;48.47;45.25;;;;;;;16.72;43.21;102328.63;5005320;28;20117;-74
2023/05/24 03:26:53;;;;;;;47.83;44.90;;;;;;;16.71;43.26;102326.16;5014063;28;20037;-73
2023/05/24 03:29:18;;;;;;;46.95;44.35;;;;;;;16.69;43.44;102325.56;4984615;28;20035;-76
2023/05/24 03:31:43;;;;;;;45.83;42.88;;;;;;;16.66;43.20;102335.09;5001535;28;20034;-74
2023/05/24 03:34:09;;;;;;;47.53;44.45;;;;;;;16.63;43.66;102328.22;5006936;28;20050;-74
2023/05/24 03:36:35;;;;;;;45.28;42.70;;;;;;;16.61;43.41;102333.09;5011699;28;20049;-74
2023/05/24 03:39:03;;;;;;;47.17;44.58;;;;;;;16.58;43.35;102330.00;5003523;28;20038;-75
2023/05/24 03:41:28;;;;;;;46.23;43.00;;;;;;;16.56;43.44;102334.88;5007221;28;20037;-73
2023/05/24 03:43:54;;;;;;;46.45;43.42;;;;;;;16.54;43.60;102335.13;4999076;28;20042;-73
2023/05/24 03:46:19;;;;;;;48.40;45.13;;;;;;;16.52;43.50;102325.53;5006758;28;20084;-73
2023/05/24 03:48:45;;;;;;;44.38;42.08;;;;;;;16.50;43.56;102319.47;5000380;28;20034;-74
2023/05/24 03:51:10;;;;;;;46.50;43.90;;;;;;;16.48;43.22;102321.63;5007258;28;20072;-74
2023/05/24 03:53:36;;;;;;;45.60;42.97;;;;;;;16.45;43.39;102322.94;4985739;28;20038;-73
2023/05/24 03:56:01;;;;;;;45.92;43.28;;;;;;;16.43;43.40;102322.38;5003491;28;20038;-73
2023/05/24 03:58:26;;;;;;;45.90;43.35;;;;;;;16.41;43.62;102316.34;5007969;28;20049;-74
2023/05/24 04:00:52;;;;;;;44.80;42.25;;;;;;;16.39;43.76;102322.03;4992077;28;20034;-79
2023/05/24 04:03:20;;;;;;;46.13;42.70;;;;;;;16.35;43.63;102326.28;5006213;28;20052;-73
2023/05/24 04:05:45;;;;;;;43.92;41.67;;;;;;;16.34;43.51;102319.19;5004313;28;20068;-74
2023/05/24 04:08:13;;;;;;;46.63;44.00;;;;;;;16.32;43.75;102326.78;5005037;28;20478;-73
2023/05/24 04:10:38;;;;;;;45.72;42.83;;;;;;;16.29;43.87;102337.34;5018457;28;20034;-76
2023/05/24 04:13:04;;;;;;;45.92;43.25;;;;;;;16.28;43.62;102336.53;5003102;28;20044;-73
2023/05/24 04:15:30;;;;;;;45.03;42.53;;;;;;;16.26;43.64;102335.13;5004727;28;20059;-72
2023/05/24 04:17:55;;;;;;;45.60;42.88;;;;;;;16.23;43.42;102341.88;5004872;28;20085;-72
2023/05/24 04:20:26;;;;;;;45.20;42.58;;;;;;;16.20;43.59;102336.88;5000706;28;20129;-73
2023/05/24 04:22:52;;;;;;;43.47;40.78;;;;;;;16.18;43.72;102337.16;5017518;28;20038;-76
2023/05/24 04:25:17;;;;;;;44.00;41.50;;;;;;;16.17;44.00;102334.66;5002658;28;20073;-75
2023/05/24 04:27:43;;;;;;;43.50;40.85;;;;;;;16.15;43.79;102328.59;5009016;28;20433;-73
2023/05/24 04:30:10;;;;;;;43.42;41.00;;;;;;;16.13;43.56;102326.16;4997175;28;20463;-75
2023/05/24 04:32:36;;;;;;;43.13;40.83;;;;;;;16.10;43.63;102323.91;5003202;28;20062;-73
2023/05/24 04:35:03;;;;;;;46.00;42.80;;;;;;;16.09;43.75;102324.97;4994328;28;20397;-74
2023/05/24 04:37:30;;;;;;;44.83;42.13;;;;;;;16.08;43.76;102325.22;5010605;28;20367;-74
2023/05/24 04:39:56;;;;;;;44.38;41.97;;;;;;;16.04;43.90;102322.13;4999047;28;20747;-79
2023/05/24 04:42:21;;;;;;;44.88;42.08;;;;;;;16.04;43.74;102322.13;5007083;28;20047;-74
2023/05/24 04:44:47;;;;;;;43.50;40.35;;;;;;;16.01;43.90;102318.00;5002625;28;20042;-74
2023/05/24 04:47:13;;;;;;;44.33;41.35;;;;;;;15.99;43.78;102327.47;5005394;28;20038;-73
2023/05/24 04:49:38;;;;;;;42.63;40.33;;;;;;;15.99;43.81;102327.47;4999001;28;20031;-74
2023/05/24 04:52:05;;;;;;;46.20;43.47;;;;;;;15.97;44.06;102321.44;5000431;28;20064;-74
2023/05/24 04:54:30;;;;;;;44.03;41.72;;;;;;;15.95;43.87;102324.41;5006806;28;20037;-73
2023/05/24 04:56:55;;;;;;;44.40;41.15;;;;;;;15.93;43.84;102323.81;5001177;28;20046;-74
2023/05/24 04:59:21;;;;;;;43.67;41.40;;;;;;;15.92;43.76;102327.59;5017615;28;20125;-73
2023/05/24 05:01:47;;;;;;;43.75;40.92;;;;;;;15.90;44.02;102329.75;5013954;28;20039;-73
2023/05/24 05:04:12;;;;;;;43.15;40.60;;;;;;;15.88;44.20;102329.16;5001882;28;20120;-73
2023/05/24 05:06:39;;;;;;;43.00;40.00;;;;;;;15.87;44.02;102322.03;5003466;28;20125;-74
2023/05/24 05:09:08;;;;;;;44.60;41.67;;;;;;;15.87;43.98;102334.84;5003798;28;20034;-71
2023/05/24 05:11:34;;;;;;;45.10;42.28;;;;;;;15.85;44.23;102334.25;4998308;28;20442;-72
2023/05/24 05:14:00;;;;;;;43.30;40.47;;;;;;;15.83;43.99;102329.06;4992616;28;20398;-73
2023/05/24 05:16:25;;;;;;;44.03;41.67;;;;;;;15.82;44.08;102332.81;4975963;28;20486;-73
2023/05/24 05:18:50;;;;;;;43.50;40.50;;;;;;;15.82;44.28;102329.28;4985652;28;20050;-74
2023/05/24 05:21:17;;;;;;;43.15;40.63;;;;;;;15.82;44.23;102332.00;4994068;28;20044;-74
2023/05/24 05:23:42;;;;;;;43.65;41.13;;;;;;;15.81;44.06;102330.34;5008708;28;20037;-73
2023/05/24 05:26:08;;;;;;;42.80;40.17;;;;;;;15.79;44.24;102328.69;4997191;28;20044;-74
2023/05/24 05:28:33;;;;;;;44.05;41.47;;;;;;;15.79;44.18;102333.31;4997267;28;20038;-73
2023/05/24 05:30:58;;;;;;;43.78;41.03;;;;;;;15.78;44.18;102331.66;5006075;28;20048;-73
2023/05/24 05:33:24;;;;;;;45.00;41.75;;;;;;;15.79;44.12;102341.47;4995493;28;20077;-73
2023/05/24 05:35:50;;;;;;;44.83;41.95;;;;;;;15.79;44.09;102336.03;5004975;28;20056;-74
2023/05/24 05:38:15;;;;;;;43.85;40.58;;;;;;;15.78;44.34;102340.66;5018013;28;20403;-74
2023/05/24 05:40:41;;;;;;;42.17;39.65;;;;;;;15.78;44.58;102326.22;5011833;28;20118;-73
2023/05/24 05:43:08;;;;;;;42.92;40.63;;;;;;;15.77;44.44;102333.56;4997932;28;20030;-73
2023/05/24 05:45:33;;;;;;;42.75;39.53;;;;;;;15.78;44.42;102328.94;4982003;28;20038;-75
2023/05/24 05:47:59;;;;;;;43.70;41.15;;;;;;;15.79;44.45;102333.31;4974590;28;20466;-73
2023/05/24 05:50:24;;;;;;;44.45;41.85;;;;;;;15.78;44.48;102337.13;4991689;28;20041;-74
2023/05/24 05:52:49;;;;;;;42.95;40.40;;;;;;;15.79;44.54;102342.31;4997794;28;20038;-73
2023/05/24 05:55:15;;;;;;;46.00;43.08;;;;;;;15.79;44.37;102341.47;5001089;28;20475;-74
2023/05/24 05:57:40;;;;;;;44.20;41.28;;;;;;;15.80;44.74;102356.78;4998807;28;20474;-73
2023/05/24 06:00:06;;;;;;;44.50;41.72;;;;;;;15.81;44.61;102354.88;5005472;28;20401;-73
2023/05/24 06:02:32;;;;;;;41.45;39.35;;;;;;;15.82;44.71;102354.63;5005473;28;20050;-74
2023/05/24 06:04:57;;;;;;;43.70;40.40;;;;;;;15.82;44.71;102354.63;5008780;28;20417;-73
2023/05/24 06:07:23;;;;;;;41.55;39.40;;;;;;;15.83;44.66;102360.94;5007979;28;20104;-72
2023/05/24 06:09:48;;;;;;;41.95;39.75;;;;;;;15.83;44.73;102363.66;4999717;28;20065;-75
2023/05/24 06:12:14;;;;;;;43.05;40.17;;;;;;;15.82;44.84;102354.63;5006126;28;20026;-78
2023/05/24 06:14:39;;;;;;;44.90;41.60;;;;;;;15.84;44.84;102359.84;4985992;28;20030;-74
2023/05/24 06:17:05;;;;;;;43.55;40.85;;;;;;;15.84;44.72;102357.94;5001659;28;20041;-73
2023/05/24 06:19:31;;;;;;;45.00;41.95;;;;;;;15.83;44.78;102361.75;5008799;28;20696;-74
2023/05/24 06:21:57;;;;;;;43.55;41.22;;;;;;;15.84;44.71;102368.84;5007037;28;20034;-73
2023/05/24 06:24:23;;;;;;;42.85;40.65;;;;;;;15.85;44.80;102367.78;5010554;28;20056;-75
2023/05/24 06:26:51;;;;;;;45.35;42.15;;;;;;;15.85;44.99;102366.94;5001147;28;20108;-74
2023/05/24 06:29:20;;;;;;;44.42;41.35;;;;;;;15.86;44.92;102368.63;5012213;28;20497;-74
2023/05/24 06:31:46;;;;;;;45.17;40.83;;;;;;;15.87;45.15;102371.09;5012601;28;20041;-74
2023/05/24 06:34:16;;;;;;;43.25;40.85;;;;;;;15.86;44.91;102372.16;5006557;28;20026;-75
2023/05/24 06:36:42;;;;;;;43.53;41.22;;;;;;;15.87;44.97;102373.00;5006650;28;20066;-74
2023/05/24 06:39:09;;;;;;;43.40;40.58;;;;;;;15.87;45.00;102378.44;5011225;28;20141;-75
2023/05/24 06:41:35;;;;;;;44.55;41.75;;;;;;;15.87;45.15;102373.81;5002518;28;20030;-76
2023/05/24 06:44:00;;;;;;;39.78;37.88;;;;;;;15.90;45.16;102367.91;5005347;28;20034;-75
2023/05/24 06:46:26;;;;;;;45.03;41.60;;;;;;;15.91;45.21;102368.72;4999728;28;20475;-76
2023/05/24 06:48:51;;;;;;;43.65;41.40;;;;;;;15.91;45.04;102375.00;5001677;28;20081;-74
2023/05/24 06:51:17;;;;;;;43.97;41.20;;;;;;;15.90;45.33;102383.41;4994491;28;20030;-75
2023/05/24 06:53:42;;;;;;;43.25;40.63;;;;;;;15.91;45.49;102380.44;5013067;28;20482;-74
2023/05/24 06:56:08;;;;;;;42.70;40.20;;;;;;;15.94;45.64;102384.59;5006594;28;20037;-78
2023/05/24 06:58:35;;;;;;;44.05;41.67;;;;;;;15.95;45.36;102386.25;5001924;28;20033;-73
2023/05/24 07:01:01;;;;;;;44.42;41.88;;;;;;;15.96;45.46;102383.28;4998621;28;20037;-75
2023/05/24 07:03:27;;;;;;;46.47;43.33;;;;;;;15.97;45.40;102375.94;5008702;28;20457;-74
2023/05/24 07:05:52;;;;;;;42.70;40.40;;;;;;;15.99;45.49;102371.91;5002245;28;20101;-78
2023/05/24 07:08:17;;;;;;;45.65;42.78;;;;;;;16.02;45.90;102376.03;5007046;28;20410;-76
2023/05/24 07:10:43;;;;;;;44.70;42.35;;;;;;;16.06;45.51;102370.97;4982700;28;20026;-73
2023/05/24 07:13:12;;;;;;;46.15;43.05;;;;;;;16.08;45.66;102371.56;5004236;28;20336;-77
2023/05/24 07:15:40;;;;;;;43.10;40.75;;;;;;;16.11;45.74;102369.16;5006634;28;20034;-74
2023/05/24 07:18:06;;;;;;;44.00;41.20;;;;;;;16.14;45.77;102362.41;5004913;28;20854;-72
2023/05/24 07:20:31;;;;;;;44.65;41.90;;;;;;;16.16;45.98;102363.00;4990572;28;20080;-73
2023/05/24 07:22:57;;;;;;;44.88;41.58;;;;;;;16.17;45.80;102365.47;4993023;28;20070;-72
2023/05/24 07:25:23;;;;;;;44.65;41.85;;;;;;;16.21;46.14;102365.84;5002066;28;20050;-73
2023/05/24 07:27:49;;;;;;;43.38;40.97;;;;;;;16.24;45.85;102370.78;5006017;28;20042;-74
2023/05/24 07:30:15;;;;;;;45.60;42.63;;;;;;;16.26;46.12;102374.13;5008376;28;20081;-72
2023/05/24 07:32:41;;;;;;;45.15;42.45;;;;;;;16.27;46.51;102367.59;5007727;28;20057;-72
2023/05/24 07:35:07;;;;;;;45.10;41.75;;;;;;;16.29;46.24;102368.19;5001170;28;20509;-72
2023/05/24 07:37:32;;;;;;;45.30;42.72;;;;;;;16.32;46.24;102373.13;5010663;28;20057;-73
2023/05/24 07:39:58;;;;;;;44.50;41.92;;;;;;;16.36;46.35;102373.50;4997267;28;20506;-72
2023/05/24 07:42:24;;;;;;;49.10;45.85;;;;;;;16.39;46.08;102370.28;5007646;28;20042;-72
2023/05/24 07:44:49;;;;;;;49.20;45.53;;;;;;;16.43;46.35;102355.94;5007762;28;20065;-72
2023/05/24 07:47:15;;;;;;;46.60;43.13;;;;;;;16.47;46.53;102358.97;5004682;28;20049;-73
2023/05/24 07:49:41;;;;;;;45.65;42.80;;;;;;;16.51;46.56;102360.16;5007569;28;20041;-74
2023/05/24 07:52:06;;;;;;;44.53;42.33;;;;;;;16.57;46.43;102366.53;5001900;28;20046;-72
2023/05/24 07:54:31;;;;;;;49.35;46.45;;;;;;;16.60;46.86;102371.50;5011144;28;20092;-72
2023/05/24 07:56:57;;;;;;;46.00;43.30;;;;;;;16.64;46.45;102376.25;5006247;28;20049;-72
2023/05/24 07:59:22;;;;;;;46.80;43.95;;;;;;;16.68;46.76;102373.84;5009317;28;20505;-73
2023/05/24 08:01:48;;;;;;;44.33;41.85;;;;;;;16.71;46.66;102384.28;5020010;28;20474;-75
2023/05/24 08:04:15;;;;;;;45.00;42.40;;;;;;;16.76;46.96;102376.19;4995237;28;20065;-75
2023/05/24 08:06:40;;;;;;;45.05;42.75;;;;;;;16.81;46.78;102372.78;4997841;28;20152;-74
2023/05/24 08:09:07;;;;;;;44.70;42.60;;;;;;;16.85;47.08;102380.19;4991118;28;20078;-73
2023/05/24 08:11:32;;;;;;;47.53;44.83;;;;;;;16.91;46.66;102383.03;5006204;28;20041;-74
2023/05/24 08:13:58;;;;;;;46.10;43.35;;;;;;;16.94;46.74;102375.19;4999978;28;20038;-75
2023/05/24 08:16:23;;;;;;;47.75;45.40;;;;;;;16.98;46.62;102373.59;5002566;28;20085;-75
2023/05/24 08:18:49;;;;;;;46.33;44.03;;;;;;;17.03;46.79;102368.25;5008022;28;20092;-75
2023/05/24 08:21:14;;;;;;;50.30;47.30;;;;;;;17.08;47.06;102370.22;5008565;28;20118;-75
2023/05/24 08:23:40;;;;;;;48.95;45.35;;;;;;;17.14;46.56;102376.63;5001408;28;20454;-71
2023/05/24 08:26:05;;;;;;;50.83;47.88;;;;;;;17.19;46.66;102369.34;5000800;28;20462;-71
2023/05/24 08:28:30;;;;;;;50.85;48.35;;;;;;;17.26;46.38;102374.63;4999170;28;20116;-71
2023/05/24 08:30:57;;;;;;;48.15;45.58;;;;;;;17.30;46.53;102371.16;4989548;28;20444;-73
2023/05/24 08:33:23;;;;;;;51.53;48.17;;;;;;;17.36;46.54;102373.97;5006568;28;20062;-74
2023/05/24 08:35:50;;;;;;;51.58;48.67;;;;;;;17.40;46.32;102369.66;5004422;28;20439;-73
2023/05/24 08:38:15;;;;;;;48.83;45.95;;;;;;;17.45;46.51;102369.75;4998903;28;20043;-73
2023/05/24 08:40:41;;;;;;;51.30;48.53;;;;;;;17.50;46.11;102365.19;5001234;28;20398;-73
2023/05/24 08:43:10;;;;;;;51.70;48.35;;;;;;;17.55;46.62;102364.44;4996676;28;20109;-73
2023/05/24 08:45:38;;;;;;;53.10;49.72;;;;;;;17.61;46.72;102368.91;5004091;28;20042;-76
2023/05/24 08:48:07;;;;;;;53.15;49.45;;;;;;;17.68;46.12;102352.34;5009152;28;20040;-73
2023/05/24 08:50:33;;;;;;;53.88;50.28;;;;;;;17.74;45.82;102354.09;5009068;28;20131;-74
2023/05/24 08:53:03;;;;;;;54.00;50.28;;;;;;;17.78;45.53;102349.75;5001248;28;20058;-74
2023/05/24 08:55:32;;;;;;;52.40;49.50;;;;;;;17.84;45.91;102356.13;4991593;28;20064;-75
2023/05/24 08:57:59;;;;;;;51.92;49.22;;;;;;;17.91;46.01;102356.78;4992333;28;20124;-74
2023/05/24 09:00:25;;;;;;;52.42;49.63;;;;;;;17.95;45.81;102353.28;4999877;28;20340;-74
2023/05/24 09:02:52;;;;;;;53.72;50.58;;;;;;;18.01;46.05;102345.97;5000374;28;20063;-73
2023/05/24 09:05:20;;;;;;;53.70;50.03;;;;;;;18.05;46.07;102346.31;4999316;28;20062;-75
2023/05/24 09:07:47;;;;;;;54.45;51.00;;;;;;;18.10;46.35;102355.41;5003610;28;20025;-72
2023/05/24 09:10:13;;;;;;;53.75;50.58;;;;;;;18.16;46.47;102348.91;5011920;28;20117;-75
2023/05/24 09:12:44;;;;;;;55.60;52.28;;;;;;;18.23;46.42;102345.16;5001299;28;20283;-74
2023/05/24 09:15:10;;;;;;;53.75;50.85;;;;;;;18.29;46.26;102338.66;4990764;28;20034;-74
2023/05/24 09:17:37;;;;;;;57.42;53.80;;;;;;;18.34;46.61;102339.56;5001158;28;20141;-75
2023/05/24 09:20:05;;;;;;;54.63;51.28;;;;;;;18.41;46.20;102342.09;5011974;28;20052;-75
2023/05/24 09:22:32;;;;;;;53.58;50.78;;;;;;;18.47;46.12;102340.22;5006506;28;20117;-83
2023/05/24 09:25:01;;;;;;;56.20;53.10;;;;;;;18.53;46.19;102345.50;5005441;28;20478;-74
2023/05/24 09:27:27;;;;;;;57.95;54.50;;;;;;;18.59;46.08;102343.66;5004878;28;20092;-74
2023/05/24 09:29:54;;;;;;;55.53;51.90;;;;;;;18.65;46.21;102350.00;5002740;28;20469;-74
2023/05/24 09:32:23;;;;;;;58.45;54.47;;;;;;;18.70;46.00;102339.13;5009815;28;20486;-76
2023/05/24 09:34:52;;;;;;;59.00;54.90;;;;;;;18.75;45.88;102342.78;5004936;28;20030;-74
2023/05/24 09:37:22;;;;;;;55.58;52.47;;;;;;;18.81;45.88;102333.50;4999498;28;20034;-73
2023/05/24 09:39:49;;;;;;;56.78;53.80;;;;;;;18.86;45.76;102335.47;5005610;28;20057;-79
2023/05/24 09:42:16;;;;;;;57.55;53.38;;;;;;;18.93;45.68;102338.00;5004711;28;20053;-74
2023/05/24 09:44:42;;;;;;;58.50;55.33;;;;;;;18.99;46.25;102336.94;5004693;28;20042;-77
2023/05/24 09:47:08;;;;;;;57.85;53.67;;;;;;;19.03;45.96;102338.91;5000575;28;20391;-72
2023/05/24 09:49:36;;;;;;;60.67;56.65;;;;;;;19.09;45.88;102338.97;5007049;28;20042;-71
2023/05/24 09:52:02;;;;;;;61.45;57.67;;;;;;;19.15;45.55;102329.69;5005671;28;20037;-73
2023/05/24 09:54:27;;;;;;;62.08;58.05;;;;;;;19.21;45.51;102326.72;5005238;28;20494;-72
2023/05/24 09:56:53;;;;;;;61.60;57.63;;;;;;;19.29;45.14;102330.91;5005717;28;20041;-72
2023/05/24 09:59:19;;;;;;;61.00;57.90;;;;;;;19.33;45.71;102332.03;5006495;28;20474;-72
2023/05/24 10:01:45;;;;;;;60.22;57.05;;;;;;;19.39;45.44;102333.72;4998960;28;20482;-74
2023/05/24 10:04:11;;;;;;;61.67;58.17;;;;;;;19.45;45.67;102334.56;4998447;28;20071;-78
2023/05/24 10:06:37;;;;;;;62.25;59.05;;;;;;;19.52;45.58;102334.34;5005823;28;20038;-72
2023/05/24 10:09:09;;;;;;;61.38;57.88;;;;;;;19.59;45.08;102330.28;5003260;28;20038;-75
2023/05/24 10:11:36;;;;;;;64.43;60.50;;;;;;;19.65;45.23;102326.50;5006433;28;20037;-74
2023/05/24 10:14:04;;;;;;;65.20;61.60;;;;;;;19.71;45.36;102330.13;4980738;28;21896;-72
2023/05/24 10:16:29;;;;;;;59.70;56.45;;;;;;;19.78;44.96;102325.22;4993492;28;20084;-73
2023/05/24 10:18:55;;;;;;;63.30;59.72;;;;;;;19.83;44.86;102321.66;5001715;28;20054;-73
2023/05/24 10:21:23;;;;;;;62.83;59.38;;;;;;;19.89;44.90;102315.94;4995109;28;20037;-75
2023/05/24 10:23:53;;;;;;;65.03;61.07;;;;;;;19.96;45.07;102317.59;5005102;28;20068;-73
2023/05/24 10:26:20;;;;;;;63.90;60.58;;;;;;;20.03;44.44;102313.53;5006553;28;20033;-74
2023/05/24 10:28:53;;;;;;;62.25;59.33;;;;;;;20.06;44.74;102310.25;5006027;28;20034;-73
2023/05/24 10:31:30;;;;;;;64.82;61.40;;;;;;;20.13;45.55;102317.41;5000130;28;20054;-72
2023/05/24 10:33:59;;;;;;;64.20;60.85;;;;;;;20.20;45.12;102317.97;5005359;28;20491;-72
2023/05/24 10:36:25;;;;;;;66.20;62.75;;;;;;;20.24;44.73;102303.47;4997689;28;20034;-72
2023/05/24 10:38:51;;;;;;;66.53;63.03;;;;;;;20.30;45.04;102315.25;4996800;28;20027;-72
2023/05/24 10:41:18;;;;;;;67.22;63.28;;;;;;;20.37;44.86;102309.53;5003208;28;20061;-74
2023/05/24 10:43:47;;;;;;;64.30;60.53;;;;;;;20.43;44.35;102311.19;5003805;28;20077;-77
2023/05/24 10:46:17;;;;;;;62.05;58.80;;;;;;;20.47;44.84;102315.88;4997064;28;20034;-76
2023/05/24 10:48:43;;;;;;;66.32;62.50;;;;;;;20.53;44.42;102313.94;5004167;28;20045;-74
2023/05/24 10:51:35;;;;;;;64.22;60.83;;;;;;;20.59;44.83;102310.16;4995972;28;20038;-74
2023/05/24 10:54:18;;;;;;;67.93;63.42;;;;;;;20.65;44.58;102308.25;5006324;28;20179;-74
2023/05/24 10:56:46;;;;;;;64.15;60.80;;;;;;;20.71;44.11;102320.88;4996054;28;20389;-74
2023/05/24 10:59:36;;;;;;;66.00;62.15;;;;;;;20.75;43.92;102309.06;5004828;28;20033;-75
2023/05/24 11:02:03;;;;;;;64.95;61.55;;;;;;;20.80;44.20;102301.94;4999402;28;20038;-74
2023/05/24 11:04:35;;;;;;;66.97;63.30;;;;;;;20.86;42.68;102303.56;5001795;28;20039;-75
2023/05/24 11:07:04;;;;;;;65.95;62.28;;;;;;;20.92;43.28;102302.50;5018283;28;20030;-76
2023/05/24 11:09:30;;;;;;;;;;;;;;;20.96;43.33;102307.19;4996887;28;20034;-73